CZEM/ZEM METAR and TAF weather

Enter ICAO airport designator
Station Type Date Time Source
CZEM METAR 2019/04/02 20:00 UTC NOAA

CZEM 022000Z 21013G19KT 15SM FEW050 04/M04 A2965 RMK SC1 LAST STFD OBS/NEXT 071400 UTC SLP042


Station Type Date Time Source
CZEM Decoded METAR 2019/04/02 20:00 UTC NOAA

Eastmain River Airport, Canada (CZEM) 52-14N 078-31W
Apr 02, 2019 - 04:00 PM EDT / 2019.04.02 2000 UTC
Wind: from the SSW (210 degrees) at 15 MPH (13 KT) gusting to 22 MPH (19 KT):0
Visibility: 15 mile(s):0
Sky conditions: mostly clear
Temperature: 39 F (4 C)
Dew Point: 24 F (-4 C)
Relative Humidity: 55%
Pressure (altimeter): 29.65 in. Hg (1004 hPa)
ob: CZEM 022000Z 21013G19KT 15SM FEW050 04/M04 A2965 RMK SC1 LAST STFD OBS/NEXT 071400 UTC SLP042
cycle: 20

Station Type Date Time Source
CZEM TAF UTC NOAA

Error!

Example: see airport list